Airfield :
LOGIN :

Register | Disclaimer

   EN    FR    IT 

 










Legend :    VFR   Marginal VFR   IFR   Intensive IFR   Very Intensive IFR
Visi :
Ceiling :
>= 8 km
>= 3000ft
5 to 8 km
1000 to 3000 ft
1500m to 5 km
500 to 1000 ft
800 to 1500m
200 to 500 ft
< 800m
< 200 ft
Symbols :   Thunderstorms  Fog  Heavy snow  Heavy precipitations  Wind > 20 kt
SIGMETs :     Misc.  Thunderstorms  Icing  Turbulence  Mountain Waves  Volcanic Ashes






- Airport Elevation : 510 ft


LJCE - Cerklje

CURRENT METAR :
  • 282130Z AUTO 09012KT 9999 BKN026/// 05/03 Q1006

EXPIRED METARs :
  • 282100Z AUTO 10013KT 9999 -SHRA BKN023/// BKN065/// 05/03 Q1005
  • 282030Z AUTO 08011KT 9999 -RA BKN020/// BKN034/// OVC053/// 05/03 Q1005
  • 282000Z AUTO 07016KT 9999 FEW019/// BKN047/// BKN220/// 06/04 Q1004
  • 281930Z AUTO 07004KT 9999 NSC 09/07 Q1003
  • 281900Z AUTO VRB03KT 9999 -DZ BKN042/// BKN100/// 10/07 Q1002

TAF TAF LJCE
Valid from the 28 at 21:00 until the 29 at 06:00 UTC


282000Z 2821/2906 07003KT 7000 FEW002
BECMG 2821/2823 3500 BR BKN002
TEMPO 2900/2906 0300 FG VV002



MET'MAP, your aeronautical weather chart ! - Copyright ORBIFLY December 2007 - Disclaimer

ORBIFLY MET'MAP TEAM :

Programming & Development : Alexandra Zaïnal
Concept & original design : Baudouin d'Aumeries
Assistance for programming : Marc-Olivier Méhu
Technical & hardware support : Manuel Goepfert

Contact : metmap@orbifly.com




SOURCES & CREDITS :

   NOAA